createdAt,value
2023-05-24T00:02:13.958Z,13.00
2023-05-24T00:04:41.730Z,13.00
2023-05-24T00:07:08.551Z,13.00
2023-05-24T00:09:35.197Z,13.00
2023-05-24T00:12:01.930Z,12.90
2023-05-24T00:14:28.503Z,12.80
2023-05-24T00:16:55.158Z,12.80
2023-05-24T00:19:22.614Z,12.80
2023-05-24T00:21:49.517Z,12.80
2023-05-24T00:24:17.315Z,12.80
2023-05-24T00:26:44.460Z,12.80
2023-05-24T00:29:11.184Z,12.80
2023-05-24T00:31:38.534Z,12.80
2023-05-24T00:34:05.087Z,12.80
2023-05-24T00:36:31.723Z,12.70
2023-05-24T00:38:58.352Z,12.60
2023-05-24T00:41:25.013Z,12.50
2023-05-24T00:43:51.624Z,12.50
2023-05-24T00:46:22.198Z,12.60
2023-05-24T00:48:49.665Z,12.60
2023-05-24T00:51:17.514Z,12.50
2023-05-24T00:53:46.422Z,12.50
2023-05-24T00:56:13.945Z,12.60
2023-05-24T00:58:41.217Z,12.60
2023-05-24T01:01:08.311Z,12.60
2023-05-24T01:03:35.808Z,12.60
2023-05-24T01:06:06.327Z,12.40
2023-05-24T01:08:39.085Z,12.50
2023-05-24T01:11:42.718Z,12.70
2023-05-24T01:14:18.633Z,12.60
2023-05-24T01:17:09.873Z,12.40
2023-05-24T01:20:09.766Z,12.30
2023-05-24T01:23:07.252Z,12.20
2023-05-24T01:25:46.595Z,12.10
2023-05-24T01:28:14.031Z,12.10
2023-05-24T01:30:41.637Z,12.10
2023-05-24T01:33:15.617Z,12.20
2023-05-24T01:35:42.837Z,12.20
2023-05-24T01:38:12.249Z,12.10
2023-05-24T01:40:50.340Z,12.10
2023-05-24T01:43:40.707Z,12.20
2023-05-24T01:46:19.372Z,12.30
2023-05-24T01:48:58.583Z,12.30
2023-05-24T01:51:33.384Z,12.30
2023-05-24T01:54:01.836Z,12.20
2023-05-24T01:56:30.604Z,12.10
2023-05-24T01:58:59.597Z,12.00
2023-05-24T02:01:26.767Z,11.90
2023-05-24T02:03:53.841Z,11.80
2023-05-24T02:06:20.404Z,11.70
2023-05-24T02:08:46.932Z,11.70
2023-05-24T02:11:13.484Z,11.60
2023-05-24T02:13:40.079Z,11.60
2023-05-24T02:16:06.990Z,11.60
2023-05-24T02:18:34.825Z,11.60
2023-05-24T02:21:02.654Z,11.60
2023-05-24T02:23:29.380Z,11.80
2023-05-24T02:25:56.543Z,11.80
2023-05-24T02:28:23.331Z,11.70
2023-05-24T02:30:49.938Z,11.60
2023-05-24T02:33:16.633Z,11.50
2023-05-24T02:35:43.319Z,11.50
2023-05-24T02:38:10.051Z,11.50
2023-05-24T02:40:36.613Z,11.40
2023-05-24T02:43:03.937Z,11.40
2023-05-24T02:45:30.620Z,11.40
2023-05-24T02:47:57.225Z,11.40
2023-05-24T02:50:24.097Z,11.40
2023-05-24T02:52:51.637Z,11.40
2023-05-24T02:55:18.554Z,11.40
2023-05-24T02:57:45.505Z,11.50
2023-05-24T03:00:12.969Z,11.50
2023-05-24T03:02:41.691Z,11.50
2023-05-24T03:05:08.607Z,11.50
2023-05-24T03:07:35.606Z,11.60
2023-05-24T03:10:02.187Z,11.70
2023-05-24T03:12:28.868Z,11.60
2023-05-24T03:14:55.461Z,11.60
2023-05-24T03:17:22.110Z,11.60
2023-05-24T03:19:49.379Z,11.60
2023-05-24T03:22:15.971Z,11.60
2023-05-24T03:24:42.536Z,11.60
2023-05-24T03:27:10.964Z,11.60
2023-05-24T03:29:37.524Z,11.50
2023-05-24T03:32:04.830Z,11.50
2023-05-24T03:34:31.551Z,11.50
2023-05-24T03:36:58.182Z,11.50
2023-05-24T03:39:24.816Z,11.50
2023-05-24T03:41:58.748Z,11.40
2023-05-24T03:44:26.104Z,11.40
2023-05-24T03:46:52.689Z,11.40
2023-05-24T03:49:19.299Z,11.40
2023-05-24T03:51:46.342Z,11.50
2023-05-24T03:54:12.893Z,11.40
2023-05-24T03:56:41.277Z,11.50
2023-05-24T03:59:08.619Z,11.50
2023-05-24T04:01:36.720Z,11.50
2023-05-24T04:04:04.111Z,11.50
2023-05-24T04:06:31.218Z,11.50
2023-05-24T04:09:01.942Z,11.50
2023-05-24T04:11:29.252Z,11.50
2023-05-24T04:13:57.245Z,11.60
2023-05-24T04:16:26.240Z,11.60
2023-05-24T04:18:56.673Z,11.50
2023-05-24T04:21:23.813Z,11.60
2023-05-24T04:23:50.585Z,11.60
2023-05-24T04:26:17.799Z,11.70
2023-05-24T04:28:45.572Z,11.70
2023-05-24T04:31:15.659Z,11.70
2023-05-24T04:33:42.440Z,11.70
2023-05-24T04:36:11.455Z,11.70
2023-05-24T04:38:38.756Z,11.80
2023-05-24T04:41:08.149Z,11.90
2023-05-24T04:43:34.898Z,12.00
2023-05-24T04:46:01.817Z,12.00
2023-05-24T04:48:28.553Z,12.00
2023-05-24T04:50:55.902Z,12.00
2023-05-24T04:53:23.310Z,12.10
2023-05-24T04:55:50.847Z,12.20
2023-05-24T04:58:17.452Z,12.20
2023-05-24T05:00:44.742Z,12.10
2023-05-24T05:03:11.706Z,12.10
2023-05-24T05:05:38.312Z,12.00
2023-05-24T05:08:04.952Z,11.90
2023-05-24T05:10:32.162Z,11.70
2023-05-24T05:12:58.747Z,11.60
2023-05-24T05:15:25.593Z,11.60
2023-05-24T05:17:52.246Z,11.50
2023-05-24T05:20:18.881Z,11.50
2023-05-24T05:22:48.991Z,11.40
2023-05-24T05:25:15.803Z,11.40
2023-05-24T05:27:42.440Z,11.30
2023-05-24T05:30:09.470Z,11.30
2023-05-24T05:32:36.398Z,11.40
2023-05-24T05:35:03.623Z,11.50
2023-05-24T05:37:31.331Z,11.50
2023-05-24T05:39:58.083Z,11.50
2023-05-24T05:42:24.881Z,11.50
2023-05-24T05:44:52.706Z,11.50
2023-05-24T05:47:19.518Z,11.50
2023-05-24T05:49:46.169Z,11.50
2023-05-24T05:52:12.888Z,11.40
2023-05-24T05:54:39.577Z,11.50
2023-05-24T05:57:08.174Z,11.50
2023-05-24T05:59:36.127Z,11.60
2023-05-24T06:02:07.090Z,11.70
2023-05-24T06:04:34.448Z,11.80
2023-05-24T06:07:01.211Z,11.80
2023-05-24T06:09:27.768Z,11.90
2023-05-24T06:11:54.395Z,12.10
2023-05-24T06:14:25.025Z,12.30
2023-05-24T06:16:52.386Z,12.40
2023-05-24T06:19:19.080Z,12.50
2023-05-24T06:21:49.520Z,12.50
2023-05-24T06:24:20.644Z,12.50
2023-05-24T06:26:48.844Z,12.60
2023-05-24T06:29:18.257Z,12.60
2023-05-24T06:31:44.990Z,12.60
2023-05-24T06:34:11.620Z,12.70
2023-05-24T06:36:42.652Z,12.70
2023-05-24T06:39:10.601Z,12.90
2023-05-24T06:41:37.733Z,13.00
2023-05-24T06:44:04.710Z,13.10
2023-05-24T06:46:31.923Z,13.10
2023-05-24T06:48:58.794Z,13.00
2023-05-24T06:51:25.417Z,13.00
2023-05-24T06:53:52.175Z,13.10
2023-05-24T06:56:19.040Z,13.10
2023-05-24T06:58:45.608Z,13.20
2023-05-24T07:01:12.189Z,13.30
2023-05-24T07:03:38.840Z,13.30
2023-05-24T07:06:05.432Z,13.50
2023-05-24T07:08:31.943Z,13.50
2023-05-24T07:10:58.481Z,13.60
2023-05-24T07:13:25.077Z,13.70
2023-05-24T07:15:51.592Z,13.80
2023-05-24T07:18:18.114Z,14.00
2023-05-24T07:20:44.938Z,14.10
2023-05-24T07:23:12.091Z,14.20
2023-05-24T07:25:38.811Z,14.20
2023-05-24T07:28:05.867Z,14.10
2023-05-24T07:30:33.047Z,14.10
2023-05-24T07:33:00.448Z,14.20
2023-05-24T07:35:29.257Z,14.20
2023-05-24T07:37:56.453Z,14.20
2023-05-24T07:40:23.419Z,14.20
2023-05-24T07:42:50.306Z,14.20
2023-05-24T07:45:16.976Z,14.20
2023-05-24T07:47:43.665Z,14.30
2023-05-24T07:50:10.749Z,14.50
2023-05-24T07:52:38.783Z,14.70
2023-05-24T07:55:06.532Z,14.50
2023-05-24T07:57:33.655Z,14.40
2023-05-24T08:00:07.132Z,14.50
2023-05-24T08:02:38.437Z,14.70
2023-05-24T08:05:05.765Z,14.80
2023-05-24T08:07:32.350Z,14.70
2023-05-24T08:09:59.049Z,14.60
2023-05-24T08:12:26.143Z,14.60
2023-05-24T08:14:52.877Z,14.60
2023-05-24T08:17:19.594Z,14.60
2023-05-24T08:19:46.220Z,14.60
2023-05-24T08:22:12.890Z,14.60
2023-05-24T08:24:39.622Z,14.60
2023-05-24T08:27:06.250Z,14.60
2023-05-24T08:29:33.304Z,14.60
2023-05-24T08:32:01.049Z,14.70
2023-05-24T08:34:28.556Z,14.80
2023-05-24T08:36:55.175Z,15.00
2023-05-24T08:39:21.870Z,15.20
2023-05-24T08:42:00.879Z,15.20
2023-05-24T08:44:59.225Z,15.00
2023-05-24T08:47:27.129Z,14.90
2023-05-24T08:49:54.437Z,15.00
2023-05-24T08:52:22.222Z,15.10
2023-05-24T08:54:50.106Z,15.10
2023-05-24T08:57:17.629Z,15.30
2023-05-24T08:59:44.692Z,15.40
2023-05-24T09:02:15.092Z,15.50
2023-05-24T09:04:44.377Z,15.60
2023-05-24T09:07:13.952Z,15.50
2023-05-24T09:09:57.693Z,15.50
2023-05-24T09:12:36.313Z,15.70
2023-05-24T09:15:06.196Z,15.80
2023-05-24T09:17:34.280Z,15.80
2023-05-24T09:20:01.563Z,15.80
2023-05-24T09:22:30.625Z,15.70
2023-05-24T09:25:01.808Z,15.70
2023-05-24T09:27:31.782Z,15.80
2023-05-24T09:29:58.702Z,15.80
2023-05-24T09:32:25.513Z,15.90
2023-05-24T09:34:56.187Z,16.20
2023-05-24T09:37:30.712Z,16.40
2023-05-24T09:39:59.348Z,16.50
2023-05-24T09:42:30.344Z,16.40
2023-05-24T09:45:10.693Z,16.60
2023-05-24T09:47:41.967Z,16.60
2023-05-24T09:50:19.317Z,16.90
2023-05-24T09:52:46.209Z,17.00
2023-05-24T09:55:17.482Z,17.20
2023-05-24T09:57:45.645Z,17.30
2023-05-24T10:00:21.653Z,17.40
2023-05-24T10:03:01.443Z,17.70
2023-05-24T10:05:29.332Z,17.90
2023-05-24T10:07:57.639Z,18.20
2023-05-24T10:10:30.713Z,18.40
2023-05-24T10:13:01.785Z,18.50
2023-05-24T10:15:29.323Z,18.70
2023-05-24T10:17:57.264Z,18.90
2023-05-24T10:20:24.497Z,18.80
2023-05-24T10:23:01.866Z,18.70
2023-05-24T10:25:29.204Z,18.50
2023-05-24T10:27:59.201Z,18.60
2023-05-24T10:30:32.850Z,18.50
2023-05-24T10:32:59.950Z,18.20
2023-05-24T10:35:28.401Z,18.00
2023-05-24T10:37:55.352Z,17.90
2023-05-24T10:40:26.884Z,17.90
2023-05-24T10:42:56.623Z,18.00
2023-05-24T10:45:23.136Z,17.90
2023-05-24T10:47:49.898Z,17.80
2023-05-24T10:50:18.150Z,17.80
2023-05-24T10:52:44.782Z,17.60
2023-05-24T10:55:12.080Z,17.50
2023-05-24T10:57:40.016Z,17.70
2023-05-24T11:03:10.804Z,17.70
2023-05-24T11:05:46.816Z,17.90
2023-05-24T11:08:13.755Z,18.00
2023-05-24T11:10:43.831Z,17.90
2023-05-24T11:13:10.952Z,17.90
2023-05-24T11:15:38.208Z,18.10
2023-05-24T11:18:14.101Z,18.30
2023-05-24T11:20:48.166Z,18.30
2023-05-24T11:23:15.995Z,18.30
2023-05-24T11:25:43.165Z,18.00
2023-05-24T11:28:13.766Z,17.90
2023-05-24T11:30:45.558Z,17.90
2023-05-24T11:33:20.102Z,17.90
2023-05-24T11:35:47.272Z,18.10
2023-05-24T11:38:16.162Z,18.30
2023-05-24T11:40:44.902Z,18.40
2023-05-24T11:43:16.664Z,18.60
2023-05-24T11:45:46.077Z,18.40
2023-05-24T11:48:12.929Z,18.20
2023-05-24T11:50:50.154Z,18.00
2023-05-24T11:53:19.241Z,18.00
2023-05-24T11:55:46.534Z,18.00
2023-05-24T11:58:24.731Z,18.10
2023-05-24T12:00:52.227Z,18.30
2023-05-24T12:03:19.008Z,18.10
2023-05-24T12:05:45.654Z,18.00
2023-05-24T12:08:15.385Z,18.00
2023-05-24T12:10:44.004Z,18.20
2023-05-24T12:13:26.502Z,18.30
2023-05-24T12:15:57.031Z,18.30
2023-05-24T12:18:26.123Z,18.30
2023-05-24T12:20:53.097Z,18.30
2023-05-24T12:23:23.127Z,18.30
2023-05-24T12:25:50.164Z,18.30
2023-05-24T12:28:21.720Z,18.50
2023-05-24T12:30:49.486Z,18.40
2023-05-24T12:33:18.826Z,18.20
2023-05-24T12:35:46.689Z,18.40
2023-05-24T12:38:13.432Z,18.60
2023-05-24T12:40:44.324Z,18.70
2023-05-24T12:43:14.749Z,18.80
2023-05-24T12:45:41.251Z,18.90
2023-05-24T12:48:08.680Z,18.90
2023-05-24T12:50:35.416Z,19.00
2023-05-24T12:53:04.506Z,19.00
2023-05-24T12:55:31.420Z,18.80
2023-05-24T12:57:58.748Z,18.80
2023-05-24T13:00:27.286Z,18.90
2023-05-24T13:02:56.764Z,19.20
2023-05-24T13:05:24.255Z,19.50
2023-05-24T13:07:52.170Z,19.40
2023-05-24T13:10:19.591Z,19.50
2023-05-24T13:12:47.061Z,19.70
2023-05-24T13:15:13.990Z,19.90
2023-05-24T13:17:41.683Z,19.80
2023-05-24T13:20:11.163Z,19.60
2023-05-24T13:22:39.266Z,19.40
2023-05-24T13:25:07.565Z,19.60
2023-05-24T13:27:34.753Z,19.80
2023-05-24T13:30:01.852Z,20.00
2023-05-24T13:32:28.699Z,20.10
2023-05-24T13:34:55.324Z,20.20
2023-05-24T13:37:22.184Z,20.20
2023-05-24T13:39:49.607Z,20.30
2023-05-24T13:42:16.267Z,20.50
2023-05-24T13:44:43.040Z,20.40
2023-05-24T13:47:10.011Z,20.60
2023-05-24T13:49:37.830Z,20.40
2023-05-24T13:52:04.572Z,20.20
2023-05-24T13:54:32.138Z,20.00
2023-05-24T13:56:59.509Z,19.80
2023-05-24T13:59:27.167Z,19.60
2023-05-24T14:01:53.933Z,19.50
2023-05-24T14:04:20.539Z,19.30
2023-05-24T14:06:47.040Z,19.30
2023-05-24T14:09:15.213Z,19.50
2023-05-24T14:11:41.914Z,19.70
2023-05-24T14:14:57.644Z,20.00
2023-05-24T14:16:55.310Z,20.10
2023-05-24T14:19:22.070Z,20.30
2023-05-24T14:21:48.607Z,20.40
2023-05-24T14:24:15.090Z,20.30
2023-05-24T14:26:42.403Z,20.50
2023-05-24T14:29:09.568Z,20.60
2023-05-24T14:31:42.172Z,20.60
2023-05-24T14:34:11.009Z,20.40
2023-05-24T14:36:38.683Z,20.30
2023-05-24T14:39:06.829Z,19.70
2023-05-24T14:41:36.477Z,19.30
2023-05-24T14:44:03.007Z,19.00
2023-05-24T14:46:29.649Z,18.90
2023-05-24T14:48:56.206Z,18.80
2023-05-24T14:51:22.752Z,18.70
2023-05-24T14:53:50.002Z,18.70
2023-05-24T14:56:16.874Z,18.60
2023-05-24T14:58:43.443Z,18.50
2023-05-24T15:01:10.079Z,18.10
2023-05-24T15:03:36.849Z,17.90
2023-05-24T15:06:04.646Z,17.70
2023-05-24T15:08:31.245Z,17.80
2023-05-24T15:10:59.103Z,17.60
2023-05-24T15:13:25.987Z,17.40
2023-05-24T15:15:54.749Z,17.30
2023-05-24T15:18:21.292Z,17.30
2023-05-24T15:20:48.106Z,17.40
2023-05-24T15:23:14.869Z,17.40
2023-05-24T15:25:42.779Z,17.20
2023-05-24T15:28:12.715Z,17.10
2023-05-24T15:30:39.455Z,17.00
2023-05-24T15:33:06.158Z,17.10
2023-05-24T15:35:32.819Z,17.10
2023-05-24T15:37:59.486Z,17.20
2023-05-24T15:40:26.182Z,17.10
2023-05-24T15:42:53.001Z,17.10
2023-05-24T15:45:19.998Z,17.10
2023-05-24T15:47:46.652Z,17.20
2023-05-24T15:50:13.250Z,17.10
2023-05-24T15:52:39.804Z,17.10
2023-05-24T15:55:06.959Z,17.00
2023-05-24T15:57:33.554Z,17.00
2023-05-24T16:00:01.238Z,16.90
2023-05-24T16:02:29.577Z,16.80
2023-05-24T16:04:57.358Z,16.80
2023-05-24T16:07:24.297Z,16.80
2023-05-24T16:09:51.088Z,16.80
2023-05-24T16:12:18.291Z,16.80
2023-05-24T16:14:44.952Z,16.80
2023-05-24T16:17:11.930Z,16.90
2023-05-24T16:19:38.536Z,17.00
2023-05-24T16:22:06.825Z,17.10
2023-05-24T16:24:33.505Z,17.30
2023-05-24T16:27:00.280Z,17.60
2023-05-24T16:29:26.895Z,17.60
2023-05-24T16:31:53.464Z,17.70
2023-05-24T16:34:20.081Z,17.80
2023-05-24T16:36:46.993Z,17.60
2023-05-24T16:39:13.562Z,17.50
2023-05-24T16:41:40.385Z,17.30
2023-05-24T16:44:17.813Z,17.20
2023-05-24T16:46:45.512Z,17.10
2023-05-24T16:49:12.557Z,17.60
2023-05-24T16:51:39.114Z,18.20
2023-05-24T16:54:08.234Z,18.30
2023-05-24T16:56:37.766Z,18.00
2023-05-24T16:59:05.177Z,18.00
2023-05-24T17:01:32.238Z,17.80
2023-05-24T17:03:59.275Z,17.70
2023-05-24T17:06:26.115Z,17.80
2023-05-24T17:08:52.917Z,17.80
2023-05-24T17:11:20.080Z,17.80
2023-05-24T17:13:47.116Z,18.10
2023-05-24T17:16:14.724Z,18.10
2023-05-24T17:18:41.541Z,18.10
2023-05-24T17:21:08.358Z,17.90
2023-05-24T17:23:37.279Z,18.00
2023-05-24T17:26:04.422Z,18.10
2023-05-24T17:28:31.377Z,17.90
2023-05-24T17:31:00.952Z,17.60
2023-05-24T17:33:29.700Z,17.20
2023-05-24T17:35:56.983Z,16.80
2023-05-24T17:38:28.507Z,16.50
2023-05-24T17:40:59.483Z,16.30
2023-05-24T17:43:31.965Z,16.00
2023-05-24T17:46:06.721Z,15.90
2023-05-24T17:48:37.359Z,15.90
2023-05-24T17:51:06.611Z,15.80
2023-05-24T17:53:34.856Z,15.70
2023-05-24T17:56:02.309Z,15.60
2023-05-24T17:58:35.412Z,15.50
2023-05-24T18:01:04.975Z,15.50
2023-05-24T18:03:32.483Z,15.50
2023-05-24T18:05:59.457Z,15.30
2023-05-24T18:08:25.999Z,15.30
2023-05-24T18:10:52.673Z,15.30
2023-05-24T18:13:19.436Z,15.30
2023-05-24T18:15:46.132Z,15.30
2023-05-24T18:18:13.411Z,15.40
2023-05-24T18:20:40.213Z,15.30
2023-05-24T18:23:06.757Z,15.20
2023-05-24T18:25:33.301Z,15.20
2023-05-24T18:27:59.911Z,15.20
2023-05-24T18:30:26.519Z,15.10
2023-05-24T18:33:04.953Z,15.10
2023-05-24T18:35:34.575Z,15.00
2023-05-24T18:38:01.518Z,15.10
2023-05-24T18:40:28.073Z,15.20
2023-05-24T18:42:54.568Z,15.10
2023-05-24T18:45:21.219Z,15.10
2023-05-24T18:47:47.890Z,15.00
2023-05-24T18:50:14.664Z,14.90
2023-05-24T18:52:41.194Z,14.90
2023-05-24T18:55:10.587Z,15.00
2023-05-24T18:57:37.675Z,15.00
2023-05-24T19:00:06.875Z,14.90
2023-05-24T19:02:39.785Z,14.90
2023-05-24T19:05:08.055Z,14.80
2023-05-24T19:07:35.577Z,14.70
2023-05-24T19:10:02.868Z,14.60
2023-05-24T19:12:30.166Z,14.60
2023-05-24T19:14:56.914Z,14.60
2023-05-24T19:17:24.752Z,14.60
2023-05-24T19:19:51.584Z,14.50
2023-05-24T19:22:18.199Z,14.50
2023-05-24T19:24:44.737Z,14.50
2023-05-24T19:27:11.276Z,14.40
2023-05-24T19:29:39.775Z,14.30
2023-05-24T19:32:07.288Z,14.30
2023-05-24T19:34:42.342Z,14.30
2023-05-24T19:37:16.022Z,14.20
2023-05-24T19:39:51.564Z,14.10
2023-05-24T19:42:18.474Z,14.10
2023-05-24T19:44:45.258Z,14.10
2023-05-24T19:47:11.909Z,14.00
2023-05-24T19:49:38.731Z,14.00
2023-05-24T19:52:05.443Z,13.90
2023-05-24T19:54:32.270Z,13.90
2023-05-24T19:57:00.678Z,13.80
2023-05-24T19:59:27.310Z,13.70
2023-05-24T20:01:53.934Z,13.70
2023-05-24T20:04:20.490Z,13.70
2023-05-24T20:06:47.104Z,13.70
2023-05-24T20:09:18.502Z,13.60
2023-05-24T20:11:46.058Z,13.50
2023-05-24T20:14:12.714Z,13.50
2023-05-24T20:16:39.355Z,13.50
2023-05-24T20:19:08.505Z,13.50
2023-05-24T20:21:35.186Z,13.50
2023-05-24T20:24:01.844Z,13.50
2023-05-24T20:26:28.436Z,13.50
2023-05-24T20:28:55.021Z,13.60
2023-05-24T20:31:21.718Z,13.60
2023-05-24T20:33:49.679Z,13.60
2023-05-24T20:36:16.811Z,13.60
2023-05-24T20:38:43.422Z,13.60
2023-05-24T20:41:10.072Z,13.60
2023-05-24T20:43:42.776Z,13.60
2023-05-24T20:46:09.484Z,13.60
2023-05-24T20:48:36.132Z,13.60
2023-05-24T20:51:08.976Z,13.60
2023-05-24T20:53:35.822Z,13.70
2023-05-24T20:56:03.610Z,13.80
2023-05-24T20:58:31.646Z,13.80
2023-05-24T21:01:01.496Z,13.70
2023-05-24T21:03:29.297Z,13.60
2023-05-24T21:05:59.274Z,13.60
2023-05-24T21:08:26.556Z,13.70
2023-05-24T21:11:00.460Z,13.60
2023-05-24T21:13:33.512Z,13.60
2023-05-24T21:16:00.627Z,13.60
2023-05-24T21:18:27.204Z,13.60
2023-05-24T21:20:53.778Z,13.70
2023-05-24T21:23:20.564Z,13.80
2023-05-24T21:25:47.250Z,13.80
2023-05-24T21:28:14.206Z,13.60
2023-05-24T21:30:41.018Z,13.50
2023-05-24T21:33:07.900Z,13.50
2023-05-24T21:35:35.092Z,13.40
2023-05-24T21:38:02.090Z,13.40
2023-05-24T21:40:28.686Z,13.40
2023-05-24T21:42:56.040Z,13.30
2023-05-24T21:45:23.450Z,13.20
2023-05-24T21:47:50.276Z,13.10
2023-05-24T21:50:16.835Z,13.20
2023-05-24T21:52:43.450Z,13.20
2023-05-24T21:55:10.204Z,13.20
2023-05-24T21:57:36.744Z,13.10
2023-05-24T22:00:04.110Z,13.00
2023-05-24T22:02:32.056Z,12.90
2023-05-24T22:04:58.660Z,12.80
2023-05-24T22:07:25.219Z,12.80
2023-05-24T22:09:51.811Z,12.80
2023-05-24T22:12:18.443Z,12.80
2023-05-24T22:14:44.962Z,12.70
2023-05-24T22:17:11.999Z,12.70
2023-05-24T22:19:41.186Z,12.70
2023-05-24T22:22:08.801Z,12.70
2023-05-24T22:24:35.796Z,12.80
2023-05-24T22:27:02.439Z,12.70
2023-05-24T22:29:29.176Z,12.70
2023-05-24T22:31:55.957Z,12.60
2023-05-24T22:34:29.750Z,12.50
2023-05-24T22:36:57.490Z,12.40
2023-05-24T22:39:24.387Z,12.40
2023-05-24T22:41:52.471Z,12.40
2023-05-24T22:44:19.433Z,12.30
2023-05-24T22:46:48.384Z,12.40
2023-05-24T22:49:19.337Z,12.40
2023-05-24T22:51:48.119Z,12.30
2023-05-24T22:54:15.649Z,12.40
2023-05-24T22:56:43.068Z,12.50
2023-05-24T22:59:10.776Z,12.50
2023-05-24T23:01:37.690Z,12.50
2023-05-24T23:04:18.984Z,12.40
2023-05-24T23:06:47.948Z,12.30
2023-05-24T23:09:14.734Z,12.20
2023-05-24T23:11:42.779Z,12.10
2023-05-24T23:14:11.449Z,12.00
2023-05-24T23:16:45.203Z,12.00
2023-05-24T23:19:13.619Z,12.00
2023-05-24T23:21:42.076Z,11.90
2023-05-24T23:24:14.193Z,12.00
2023-05-24T23:26:43.974Z,12.00
2023-05-24T23:29:10.795Z,11.80
2023-05-24T23:31:37.542Z,11.80
2023-05-24T23:34:04.800Z,11.80
2023-05-24T23:36:31.545Z,11.80
2023-05-24T23:38:58.256Z,11.80
2023-05-24T23:41:24.890Z,11.80
2023-05-24T23:43:52.434Z,11.80
2023-05-24T23:46:19.316Z,11.80
2023-05-24T23:48:46.141Z,11.80
2023-05-24T23:51:12.940Z,11.70
2023-05-24T23:53:39.562Z,11.50
2023-05-24T23:56:06.221Z,11.50
2023-05-24T23:58:33.571Z,11.40
